createdAt,value
2022-12-14T00:03:55.766Z,7.93
2022-12-14T00:09:00.638Z,10.57
2022-12-14T00:14:04.500Z,11.35
2022-12-14T00:19:06.873Z,10.90
2022-12-14T00:24:09.545Z,8.85
2022-12-14T00:29:12.228Z,9.50
2022-12-14T00:34:14.788Z,7.90
2022-12-14T00:39:17.991Z,10.77
2022-12-14T00:44:20.398Z,7.85
2022-12-14T00:49:22.709Z,10.05
2022-12-14T00:54:25.006Z,8.10
2022-12-14T00:59:27.790Z,8.23
2022-12-14T01:04:30.436Z,8.35
2022-12-14T01:09:32.720Z,7.63
2022-12-14T01:14:35.107Z,11.13
2022-12-14T01:19:37.486Z,9.20
2022-12-14T01:24:40.071Z,7.53
2022-12-14T01:29:42.285Z,14.07
2022-12-14T01:34:44.497Z,8.88
2022-12-14T01:39:47.753Z,11.30
2022-12-14T01:44:56.001Z,6.47
2022-12-14T01:50:11.517Z,4.47
2022-12-14T01:55:29.756Z,9.02
2022-12-14T02:00:32.544Z,12.82
2022-12-14T02:05:38.069Z,6.78
2022-12-14T02:10:40.510Z,7.53
2022-12-14T02:15:43.642Z,5.72
2022-12-14T02:21:06.009Z,8.65
2022-12-14T02:26:23.557Z,8.38
2022-12-14T02:31:43.735Z,11.93
2022-12-14T02:37:00.748Z,8.18
2022-12-14T02:42:25.085Z,10.85
2022-12-14T02:47:46.934Z,11.90
2022-12-14T02:53:10.284Z,9.82
2022-12-14T02:58:21.813Z,14.23
2022-12-14T03:03:24.532Z,10.40
2022-12-14T03:08:30.106Z,14.40
2022-12-14T03:13:44.273Z,12.52
2022-12-14T03:19:16.162Z,14.48
2022-12-14T03:24:26.007Z,11.23
2022-12-14T03:29:37.790Z,12.52
2022-12-14T03:34:53.760Z,9.90
2022-12-14T03:39:56.311Z,15.98
2022-12-14T03:45:17.665Z,10.73
2022-12-14T03:50:33.171Z,12.70
2022-12-14T03:56:02.995Z,10.93
2022-12-14T04:01:35.440Z,13.40
2022-12-14T04:06:49.665Z,16.67
2022-12-14T04:12:17.490Z,14.20
2022-12-14T04:17:44.276Z,14.38
2022-12-14T04:22:52.678Z,16.23
2022-12-14T04:27:57.703Z,23.88
2022-12-14T04:33:26.923Z,12.32
2022-12-14T04:38:36.424Z,13.23
2022-12-14T04:43:42.878Z,16.63
2022-12-14T04:48:45.030Z,16.85
2022-12-14T04:53:52.785Z,14.65
2022-12-14T04:58:55.381Z,14.88
2022-12-14T05:04:22.594Z,19.35
2022-12-14T05:09:42.578Z,19.70
2022-12-14T05:14:51.389Z,19.95
2022-12-14T05:19:54.763Z,22.15
2022-12-14T05:24:57.037Z,21.48
2022-12-14T05:29:59.315Z,16.83
2022-12-14T05:35:02.665Z,18.42
2022-12-14T05:40:05.394Z,29.33
2022-12-14T05:45:08.566Z,19.35
2022-12-14T05:50:12.336Z,27.52
2022-12-14T05:55:14.545Z,34.38
2022-12-14T06:00:17.008Z,23.02
2022-12-14T06:05:19.683Z,24.98
2022-12-14T06:10:21.903Z,23.25
2022-12-14T06:15:27.188Z,29.90
2022-12-14T06:20:31.882Z,21.92
2022-12-14T06:25:34.164Z,21.60
2022-12-14T06:30:36.400Z,23.35
2022-12-14T06:35:45.924Z,14.82
2022-12-14T06:40:48.393Z,12.80
2022-12-14T06:45:50.676Z,13.48
2022-12-14T06:50:52.967Z,17.05
2022-12-14T06:55:55.221Z,18.10
2022-12-14T07:01:01.321Z,19.05
2022-12-14T07:06:04.737Z,24.25
2022-12-14T07:11:09.760Z,26.85
2022-12-14T07:16:26.418Z,27.05
2022-12-14T07:21:28.684Z,25.80
2022-12-14T07:26:31.234Z,29.92
2022-12-14T07:31:33.588Z,22.83
2022-12-14T07:36:35.912Z,33.00
2022-12-14T07:41:38.180Z,27.70
2022-12-14T07:46:41.528Z,15.18
2022-12-14T07:51:44.759Z,17.02
2022-12-14T07:56:47.090Z,14.70
2022-12-14T08:01:49.661Z,14.68
2022-12-14T08:06:52.061Z,16.60
2022-12-14T08:11:54.325Z,12.52
2022-12-14T08:16:56.557Z,14.13
2022-12-14T08:21:58.779Z,15.95
2022-12-14T08:27:00.981Z,16.48
2022-12-14T08:32:03.198Z,20.67
2022-12-14T08:37:05.419Z,30.65
2022-12-14T08:42:07.733Z,28.02
2022-12-14T08:47:09.974Z,31.33
2022-12-14T08:52:15.149Z,24.83
2022-12-14T08:57:17.361Z,16.23
2022-12-14T09:02:19.677Z,16.63
2022-12-14T09:07:22.099Z,24.80
2022-12-14T09:12:24.420Z,20.30
2022-12-14T09:17:26.675Z,24.48
2022-12-14T09:22:29.214Z,29.50
2022-12-14T09:27:31.546Z,30.60
2022-12-14T09:32:33.856Z,26.65
2022-12-14T09:37:36.546Z,23.98
2022-12-14T09:42:51.480Z,32.47
2022-12-14T09:48:12.747Z,28.58
2022-12-14T09:53:16.682Z,26.23
2022-12-14T09:58:24.215Z,43.00
2022-12-14T10:03:43.661Z,30.00
2022-12-14T10:08:57.468Z,29.90
2022-12-14T10:14:38.325Z,31.25
2022-12-14T10:19:58.028Z,23.85
2022-12-14T10:25:24.829Z,23.40
2022-12-14T10:30:27.228Z,21.25
2022-12-14T10:35:38.790Z,16.42
2022-12-14T10:40:49.784Z,17.50
2022-12-14T10:46:14.784Z,28.33
2022-12-14T10:51:31.288Z,20.63
2022-12-14T10:56:37.070Z,18.95
2022-12-14T11:01:39.461Z,14.57
2022-12-14T11:06:41.850Z,25.58
2022-12-14T11:11:46.196Z,18.52
2022-12-14T11:16:51.034Z,20.70
2022-12-14T11:22:20.284Z,22.13
2022-12-14T11:27:24.398Z,28.75
2022-12-14T11:32:26.697Z,19.38
2022-12-14T11:37:33.131Z,25.88
2022-12-14T11:42:37.493Z,18.27
2022-12-14T11:47:39.973Z,21.27
2022-12-14T11:52:43.443Z,20.50
2022-12-14T11:57:55.874Z,17.77
2022-12-14T12:03:04.047Z,18.13
2022-12-14T12:08:16.329Z,20.10
2022-12-14T12:13:32.962Z,15.77
2022-12-14T12:18:46.226Z,16.27
2022-12-14T12:24:07.582Z,14.13
2022-12-14T12:29:30.765Z,20.42
2022-12-14T12:34:39.074Z,17.80
2022-12-14T12:39:46.248Z,17.80
2022-12-14T12:45:02.818Z,20.42
2022-12-14T12:50:13.971Z,15.23
2022-12-14T12:55:20.306Z,21.77
2022-12-14T13:00:27.771Z,19.70
2022-12-14T13:05:48.644Z,14.50
2022-12-14T13:16:26.190Z,11.60
2022-12-14T13:21:35.741Z,20.30
2022-12-14T13:27:03.175Z,14.43
2022-12-14T13:32:33.786Z,14.48
2022-12-14T13:37:59.322Z,22.67
2022-12-14T13:43:17.157Z,15.75
2022-12-14T13:48:34.718Z,16.65
2022-12-14T13:53:50.034Z,13.70
2022-12-14T13:58:55.019Z,14.07
2022-12-14T14:04:43.808Z,14.32
2022-12-14T14:10:05.134Z,13.82
2022-12-14T14:15:52.006Z,12.38
2022-12-14T14:21:13.191Z,14.27
2022-12-14T14:26:33.993Z,20.73
2022-12-14T14:32:02.565Z,16.83
2022-12-14T14:37:28.018Z,21.42
2022-12-14T14:42:35.922Z,17.80
2022-12-14T14:47:40.449Z,18.88
2022-12-14T14:52:42.688Z,13.48
2022-12-14T14:58:01.781Z,19.48
2022-12-14T15:03:06.937Z,15.32
2022-12-14T15:08:38.566Z,13.48
2022-12-14T15:13:49.775Z,19.10
2022-12-14T15:18:52.124Z,26.90
2022-12-14T15:23:56.739Z,23.45
2022-12-14T15:29:00.984Z,27.35
2022-12-14T15:34:04.052Z,26.90
2022-12-14T15:39:06.789Z,26.80
2022-12-14T15:44:21.867Z,21.52
2022-12-14T15:49:27.332Z,26.00
2022-12-14T15:54:29.704Z,27.17
2022-12-14T15:59:35.567Z,25.13
2022-12-14T16:04:38.443Z,31.85
2022-12-14T16:09:50.393Z,26.70
2022-12-14T16:15:00.470Z,25.85
2022-12-14T16:20:21.857Z,18.17
2022-12-14T16:25:24.211Z,23.55
2022-12-14T16:30:30.490Z,24.35
2022-12-14T16:35:35.896Z,24.77
2022-12-14T16:40:59.935Z,22.77
2022-12-14T16:46:04.990Z,31.50
2022-12-14T16:52:04.969Z,28.35
2022-12-14T16:56:59.139Z,25.30
2022-12-14T17:02:01.535Z,31.85
2022-12-14T17:07:05.416Z,31.75
2022-12-14T17:12:15.167Z,33.47
2022-12-14T17:17:25.446Z,22.50
2022-12-14T17:22:30.693Z,28.08
2022-12-14T17:27:32.969Z,23.63
2022-12-14T17:32:38.285Z,27.92
2022-12-14T17:37:40.516Z,30.80
2022-12-14T17:42:52.505Z,30.10
2022-12-14T17:47:55.554Z,31.38
2022-12-14T17:52:57.817Z,30.45
2022-12-14T17:58:00.785Z,31.38
2022-12-14T18:03:04.898Z,33.17
2022-12-14T18:08:07.363Z,37.17
2022-12-14T18:13:11.967Z,31.85
2022-12-14T18:18:15.383Z,28.15
2022-12-14T18:23:19.040Z,34.67
2022-12-14T18:28:22.196Z,31.35
2022-12-14T18:33:27.646Z,32.22
2022-12-14T18:38:30.153Z,34.55
2022-12-14T18:43:33.345Z,32.42
2022-12-14T18:48:36.666Z,33.20
2022-12-14T18:53:39.331Z,37.97
2022-12-14T18:58:42.448Z,30.67
2022-12-14T19:03:45.677Z,30.58
2022-12-14T19:08:49.689Z,32.90
2022-12-14T19:13:52.175Z,30.73
2022-12-14T19:18:54.590Z,36.47
2022-12-14T19:23:56.965Z,32.38
2022-12-14T19:28:59.274Z,30.23
2022-12-14T19:34:01.845Z,31.65
2022-12-14T19:39:05.027Z,32.58
2022-12-14T19:44:07.526Z,31.55
2022-12-14T19:49:13.307Z,40.80
2022-12-14T19:54:15.746Z,44.38
2022-12-14T19:59:18.775Z,59.25
2022-12-14T20:04:21.477Z,68.63
2022-12-14T20:09:23.842Z,62.83
2022-12-14T20:14:26.900Z,55.40
2022-12-14T20:19:29.293Z,62.72
2022-12-14T20:24:31.978Z,43.03
2022-12-14T20:29:34.414Z,38.80
2022-12-14T20:34:39.599Z,42.60
2022-12-14T20:39:42.176Z,54.53
2022-12-14T20:44:44.542Z,44.65
2022-12-14T20:49:52.256Z,50.60
2022-12-14T20:54:54.610Z,48.83
2022-12-14T20:59:59.393Z,68.38
2022-12-14T21:05:02.167Z,39.08
2022-12-14T21:10:08.203Z,40.63
2022-12-14T21:15:10.754Z,37.90
2022-12-14T21:20:13.650Z,40.70
2022-12-14T21:25:16.107Z,36.63
2022-12-14T21:30:19.002Z,39.45
2022-12-14T21:35:21.332Z,36.83
2022-12-14T21:40:42.366Z,42.00
2022-12-14T21:45:46.191Z,48.35
2022-12-14T21:50:48.550Z,48.53
2022-12-14T21:55:52.261Z,41.20
2022-12-14T22:00:54.566Z,33.20
2022-12-14T22:05:57.205Z,38.05
2022-12-14T22:11:03.372Z,35.35
2022-12-14T22:16:08.534Z,32.00
2022-12-14T22:21:10.726Z,37.28
2022-12-14T22:26:12.984Z,32.90
2022-12-14T22:31:15.292Z,35.67
2022-12-14T22:36:18.651Z,33.45
2022-12-14T22:41:21.163Z,32.92
2022-12-14T22:46:25.254Z,31.13
2022-12-14T22:51:29.559Z,36.70
2022-12-14T22:56:34.539Z,30.50
2022-12-14T23:01:37.972Z,31.38
2022-12-14T23:06:41.830Z,28.98
2022-12-14T23:12:02.619Z,31.83
2022-12-14T23:17:24.522Z,29.58
2022-12-14T23:22:45.925Z,31.02
2022-12-14T23:28:10.605Z,29.27
2022-12-14T23:33:31.580Z,32.03
2022-12-14T23:38:52.896Z,30.38
2022-12-14T23:44:13.788Z,37.17
2022-12-14T23:49:34.807Z,26.17
2022-12-14T23:54:55.546Z,27.77
